Time;durP1;ratioP1;P1;durP2;ratioP2;P2;SDS_P1;SDS_P2;PMS_P1;PMS_P2;Temp;Humidity;BMP_temperature;BMP_pressure;BME280_temperature;BME280_humidity;BME280_pressure;Samples;Min_cycle;Max_cycle;Signal;HPM_P1;HPM_P2
2022/05/04 00:01:35;;;;;;;;;38.75;34.50;;;;;;;;5057146;28;45386;-70
2022/05/04 00:04:07;;;;;;;;;39.25;34.25;;;;;;;;5058045;28;45636;-69
2022/05/04 00:06:34;;;;;;;;;38.50;34.25;;;;;;;;5055084;28;46221;-70
2022/05/04 00:09:01;;;;;;;;;39.75;35.50;;;;;;;;5057469;28;45462;-69
2022/05/04 00:11:27;;;;;;;;;35.75;33.25;;;;;;;;5057602;28;45523;-69
2022/05/04 00:13:58;;;;;;;;;39.00;34.00;;;;;;;;5057615;28;45467;-69
2022/05/04 00:16:25;;;;;;;;;36.50;33.00;;;;;;;;5057290;28;46155;-69
2022/05/04 00:18:54;;;;;;;;;38.75;34.00;;;;;;;;5054674;28;45610;-69
2022/05/04 00:21:20;;;;;;;;;42.00;34.00;;;;;;;;5057510;28;45492;-75
2022/05/04 00:23:45;;;;;;;;;42.25;35.00;;;;;;;;5057424;28;45509;-72
2022/05/04 00:26:10;;;;;;;;;37.50;34.00;;;;;;;;5057285;28;46109;-73
2022/05/04 00:28:36;;;;;;;;;40.75;35.00;;;;;;;;5057723;28;45579;-71
2022/05/04 00:31:01;;;;;;;;;41.00;35.00;;;;;;;;5057552;28;45529;-72
2022/05/04 00:33:26;;;;;;;;;39.25;34.75;;;;;;;;5057611;28;45544;-74
2022/05/04 00:35:52;;;;;;;;;37.50;33.25;;;;;;;;5058535;28;46022;-75
2022/05/04 00:38:17;;;;;;;;;37.75;34.25;;;;;;;;5059089;28;45224;-75
2022/05/04 00:40:43;;;;;;;;;37.50;34.00;;;;;;;;5059014;28;45472;-74
2022/05/04 00:43:21;;;;;;;;;44.00;36.25;;;;;;;;5059376;28;45430;-75
2022/05/04 00:45:46;;;;;;;;;41.25;33.25;;;;;;;;5058783;28;45455;-75
2022/05/04 00:48:12;;;;;;;;;39.75;34.50;;;;;;;;5058360;28;45422;-76
2022/05/04 00:50:37;;;;;;;;;39.75;33.75;;;;;;;;5059234;28;45486;-75
2022/05/04 00:53:02;;;;;;;;;41.25;34.00;;;;;;;;5058658;28;45444;-74
2022/05/04 00:55:28;;;;;;;;;40.50;35.75;;;;;;;;5058561;28;46010;-75
2022/05/04 01:00:38;;;;;;;;;37.25;33.25;;;;;;;;5059039;28;45406;-75
2022/05/04 01:03:03;;;;;;;;;39.50;34.25;;;;;;;;5058700;28;45468;-75
2022/05/04 01:05:29;;;;;;;;;43.00;36.50;;;;;;;;5056998;28;45464;-75
2022/05/04 01:07:54;;;;;;;;;40.75;33.75;;;;;;;;5058431;28;45547;-73
2022/05/04 01:10:19;;;;;;;;;38.00;34.25;;;;;;;;5058641;28;45338;-75
2022/05/04 01:12:46;;;;;;;;;38.25;34.00;;;;;;;;5058571;28;45414;-74
2022/05/04 01:15:11;;;;;;;;;39.00;34.75;;;;;;;;5057056;28;45259;-73
2022/05/04 01:17:37;;;;;;;;;39.75;34.25;;;;;;;;5058635;28;45511;-76
2022/05/04 01:20:02;;;;;;;;;38.00;33.25;;;;;;;;5058775;28;45204;-75
2022/05/04 01:22:28;;;;;;;;;40.50;35.00;;;;;;;;5058165;28;45244;-74
2022/05/04 01:24:53;;;;;;;;;41.00;34.25;;;;;;;;5058087;28;45480;-74
2022/05/04 01:27:18;;;;;;;;;42.50;36.00;;;;;;;;5058059;28;45351;-75
2022/05/04 01:29:44;;;;;;;;;47.00;38.00;;;;;;;;5058407;28;45474;-74
2022/05/04 01:32:09;;;;;;;;;43.25;37.00;;;;;;;;5058575;28;45223;-76
2022/05/04 01:34:34;;;;;;;;;42.25;35.75;;;;;;;;5058532;28;46115;-75
2022/05/04 01:37:00;;;;;;;;;51.00;41.50;;;;;;;;5057982;28;45238;-75
2022/05/04 01:39:26;;;;;;;;;51.75;44.00;;;;;;;;5057889;28;45564;-75
2022/05/04 01:42:03;;;;;;;;;49.25;38.75;;;;;;;;5058257;28;45471;-75
2022/05/04 01:44:35;;;;;;;;;46.50;37.50;;;;;;;;5057765;28;45383;-74
2022/05/04 01:47:01;;;;;;;;;89.50;78.00;;;;;;;;5057875;28;45497;-75
2022/05/04 01:49:26;;;;;;;;;66.75;53.00;;;;;;;;5057848;28;45433;-75
2022/05/04 01:51:51;;;;;;;;;69.50;53.00;;;;;;;;5058059;28;45532;-74
2022/05/04 01:54:17;;;;;;;;;55.75;46.25;;;;;;;;5057709;28;45358;-75
2022/05/04 01:56:42;;;;;;;;;49.50;40.75;;;;;;;;5058163;28;45283;-76
2022/05/04 01:59:07;;;;;;;;;44.00;36.75;;;;;;;;5057865;28;45306;-75
2022/05/04 02:01:33;;;;;;;;;47.00;38.50;;;;;;;;5058032;28;45444;-74
2022/05/04 02:03:59;;;;;;;;;42.00;35.25;;;;;;;;5057495;28;45516;-75
2022/05/04 02:06:24;;;;;;;;;42.50;37.00;;;;;;;;5057502;28;45456;-75
2022/05/04 02:08:50;;;;;;;;;41.25;36.00;;;;;;;;5057773;28;45365;-75
2022/05/04 02:11:16;;;;;;;;;38.25;33.50;;;;;;;;5057805;28;45614;-74
2022/05/04 02:13:42;;;;;;;;;42.00;34.75;;;;;;;;5057576;28;46051;-75
2022/05/04 02:16:07;;;;;;;;;47.50;39.00;;;;;;;;5057376;28;45263;-75
2022/05/04 02:18:33;;;;;;;;;44.50;37.75;;;;;;;;5057525;28;45260;-75
2022/05/04 02:20:58;;;;;;;;;45.00;38.75;;;;;;;;5057647;28;45415;-74
2022/05/04 02:23:24;;;;;;;;;44.25;37.00;;;;;;;;5057127;28;45554;-74
2022/05/04 02:25:49;;;;;;;;;43.50;37.50;;;;;;;;5056825;28;45310;-74
2022/05/04 02:28:14;;;;;;;;;45.75;37.00;;;;;;;;5057698;28;45296;-74
2022/05/04 02:30:40;;;;;;;;;45.75;37.50;;;;;;;;5057524;28;45456;-75
2022/05/04 02:33:05;;;;;;;;;40.50;34.00;;;;;;;;5057114;28;45460;-75
2022/05/04 02:38:16;;;;;;;;;43.25;36.75;;;;;;;;5057483;28;45490;-75
2022/05/04 02:40:41;;;;;;;;;41.00;35.50;;;;;;;;5057493;28;45508;-74
2022/05/04 02:43:07;;;;;;;;;42.75;36.00;;;;;;;;5057009;28;46004;-74
2022/05/04 02:45:33;;;;;;;;;40.50;34.75;;;;;;;;5057183;28;45366;-75
2022/05/04 02:47:58;;;;;;;;;40.50;35.25;;;;;;;;5057228;28;45306;-74
2022/05/04 02:50:23;;;;;;;;;41.50;35.75;;;;;;;;5057376;28;45384;-75
2022/05/04 02:52:49;;;;;;;;;38.75;34.00;;;;;;;;5056934;28;45592;-74
2022/05/04 02:55:14;;;;;;;;;44.50;36.00;;;;;;;;5057249;28;45278;-74
2022/05/04 02:57:39;;;;;;;;;47.00;37.25;;;;;;;;5057122;28;45292;-75
2022/05/04 03:00:05;;;;;;;;;36.75;33.25;;;;;;;;5057216;28;45472;-75
2022/05/04 03:02:31;;;;;;;;;41.75;33.50;;;;;;;;5056862;28;45509;-77
2022/05/04 03:05:00;;;;;;;;;37.25;33.25;;;;;;;;5056909;28;45288;-76
2022/05/04 03:07:26;;;;;;;;;38.75;33.00;;;;;;;;5056949;28;45373;-76
2022/05/04 03:09:52;;;;;;;;;44.00;37.25;;;;;;;;5056968;28;45407;-75
2022/05/04 03:12:18;;;;;;;;;45.50;37.25;;;;;;;;5056946;28;45373;-74
2022/05/04 03:14:46;;;;;;;;;46.25;39.00;;;;;;;;5057042;28;46134;-75
2022/05/04 03:17:11;;;;;;;;;40.50;36.00;;;;;;;;5056792;28;45160;-75
2022/05/04 03:19:37;;;;;;;;;45.00;37.50;;;;;;;;5056880;28;45231;-76
2022/05/04 03:22:03;;;;;;;;;47.75;38.50;;;;;;;;5056385;28;46309;-76
2022/05/04 03:24:28;;;;;;;;;47.50;38.50;;;;;;;;5056454;28;45468;-75
2022/05/04 03:26:53;;;;;;;;;46.75;37.50;;;;;;;;5056740;28;45410;-75
2022/05/04 03:29:19;;;;;;;;;44.75;36.75;;;;;;;;5056982;28;45370;-71
2022/05/04 03:31:44;;;;;;;;;48.00;39.75;;;;;;;;5056728;28;46305;-75
2022/05/04 03:34:10;;;;;;;;;44.25;37.75;;;;;;;;5056257;28;45895;-76
2022/05/04 03:36:35;;;;;;;;;44.50;37.25;;;;;;;;5060008;28;45548;-75
2022/05/04 03:39:01;;;;;;;;;43.75;36.75;;;;;;;;5060135;28;45223;-75
2022/05/04 03:41:27;;;;;;;;;47.50;40.25;;;;;;;;5060527;28;45557;-75
2022/05/04 03:43:52;;;;;;;;;42.75;36.00;;;;;;;;5059637;28;45310;-75
2022/05/04 03:46:19;;;;;;;;;49.00;38.50;;;;;;;;5060142;28;45418;-75
2022/05/04 03:48:45;;;;;;;;;42.75;36.50;;;;;;;;5060001;28;45270;-75
2022/05/04 03:51:13;;;;;;;;;41.25;36.25;;;;;;;;5058314;28;47425;-75
2022/05/04 03:53:39;;;;;;;;;44.00;37.25;;;;;;;;5059664;28;45223;-75
2022/05/04 03:56:04;;;;;;;;;42.50;37.00;;;;;;;;5059783;28;45216;-75
2022/05/04 03:58:30;;;;;;;;;48.00;39.50;;;;;;;;5060040;28;45296;-76
2022/05/04 04:00:55;;;;;;;;;40.75;36.25;;;;;;;;5059310;28;45551;-76
2022/05/04 04:03:20;;;;;;;;;43.25;34.50;;;;;;;;5059687;28;45485;-75
2022/05/04 04:05:46;;;;;;;;;45.50;37.00;;;;;;;;5060149;28;45997;-76
2022/05/04 04:08:11;;;;;;;;;42.50;36.50;;;;;;;;5058367;28;45627;-74
2022/05/04 04:10:36;;;;;;;;;47.00;37.50;;;;;;;;5059355;28;46111;-75
2022/05/04 04:13:02;;;;;;;;;48.25;39.75;;;;;;;;5059637;28;45328;-75
2022/05/04 04:15:27;;;;;;;;;43.75;36.50;;;;;;;;5059907;28;45349;-76
2022/05/04 04:17:53;;;;;;;;;39.75;35.75;;;;;;;;5061912;28;45355;-74
2022/05/04 04:23:02;;;;;;;;;42.75;37.50;;;;;;;;5059196;28;45467;-75
2022/05/04 04:25:28;;;;;;;;;46.00;36.25;;;;;;;;5058034;28;45384;-75
2022/05/04 04:27:53;;;;;;;;;47.50;39.00;;;;;;;;5058078;28;45430;-75
2022/05/04 04:30:19;;;;;;;;;45.50;38.25;;;;;;;;5059390;28;45528;-75
2022/05/04 04:32:44;;;;;;;;;45.75;37.25;;;;;;;;5059113;28;45500;-75
2022/05/04 04:35:10;;;;;;;;;44.00;38.00;;;;;;;;5059057;28;45395;-76
2022/05/04 04:37:35;;;;;;;;;43.50;37.00;;;;;;;;5059205;28;45335;-75
2022/05/04 04:40:00;;;;;;;;;43.50;36.75;;;;;;;;5058842;28;45568;-75
2022/05/04 04:42:26;;;;;;;;;49.25;38.50;;;;;;;;5059059;28;45568;-75
2022/05/04 04:44:51;;;;;;;;;40.50;34.75;;;;;;;;5059605;28;45469;-74
2022/05/04 04:47:16;;;;;;;;;44.25;37.25;;;;;;;;5059152;28;45559;-75
2022/05/04 04:49:42;;;;;;;;;45.25;36.00;;;;;;;;5058423;28;45322;-76
2022/05/04 04:52:07;;;;;;;;;43.25;37.25;;;;;;;;5058807;28;45425;-76
2022/05/04 04:54:32;;;;;;;;;47.75;39.75;;;;;;;;5057433;28;45325;-75
2022/05/04 04:56:58;;;;;;;;;43.50;37.25;;;;;;;;5057642;28;45597;-75
2022/05/04 04:59:23;;;;;;;;;47.25;38.00;;;;;;;;5058954;28;45294;-75
2022/05/04 05:01:48;;;;;;;;;47.00;38.00;;;;;;;;5058980;28;45306;-75
2022/05/04 05:04:14;;;;;;;;;41.75;35.75;;;;;;;;5058629;28;45512;-76
2022/05/04 05:06:39;;;;;;;;;42.75;36.50;;;;;;;;5058863;28;45540;-75
2022/05/04 05:09:04;;;;;;;;;46.25;37.75;;;;;;;;5058403;28;46039;-75
2022/05/04 05:11:30;;;;;;;;;46.25;37.50;;;;;;;;5058719;28;45223;-76
2022/05/04 05:16:39;;;;;;;;;50.25;39.50;;;;;;;;5058663;28;45230;-76
2022/05/04 05:19:04;;;;;;;;;51.75;41.00;;;;;;;;5057966;28;46008;-76
2022/05/04 05:21:29;;;;;;;;;45.25;37.75;;;;;;;;5058168;28;45403;-76
2022/05/04 05:23:55;;;;;;;;;42.75;36.75;;;;;;;;5058594;28;45294;-76
2022/05/04 05:26:21;;;;;;;;;44.50;36.00;;;;;;;;5058901;28;45216;-75
2022/05/04 05:28:47;;;;;;;;;47.00;38.50;;;;;;;;5058214;28;45526;-75
2022/05/04 05:31:13;;;;;;;;;44.50;36.25;;;;;;;;5057870;28;45294;-75
2022/05/04 05:33:39;;;;;;;;;44.25;36.25;;;;;;;;5058218;28;45337;-75
2022/05/04 05:36:04;;;;;;;;;48.25;38.25;;;;;;;;5058389;28;45214;-75
2022/05/04 05:38:29;;;;;;;;;45.00;37.25;;;;;;;;5057878;28;46193;-76
2022/05/04 05:40:55;;;;;;;;;51.00;40.25;;;;;;;;5058228;28;45471;-76
2022/05/04 05:43:20;;;;;;;;;44.75;36.75;;;;;;;;5061292;28;45443;-73
2022/05/04 05:45:45;;;;;;;;;46.75;36.75;;;;;;;;5058276;28;45382;-76
2022/05/04 05:48:11;;;;;;;;;46.00;38.25;;;;;;;;5057808;28;45432;-75
2022/05/04 05:50:36;;;;;;;;;43.75;35.75;;;;;;;;5057865;28;45226;-76
2022/05/04 05:53:02;;;;;;;;;44.75;37.25;;;;;;;;5057815;28;45323;-76
2022/05/04 05:55:28;;;;;;;;;48.00;37.00;;;;;;;;5057833;28;45453;-73
2022/05/04 05:57:53;;;;;;;;;46.50;38.25;;;;;;;;5057922;28;46042;-75
2022/05/04 06:00:19;;;;;;;;;48.75;40.25;;;;;;;;5057160;28;45537;-76
2022/05/04 06:02:45;;;;;;;;;50.50;40.50;;;;;;;;5057578;28;45507;-75
2022/05/04 06:05:10;;;;;;;;;51.50;41.50;;;;;;;;5057763;28;45354;-74
2022/05/04 06:07:36;;;;;;;;;67.50;54.00;;;;;;;;5056171;28;45358;-74
2022/05/04 06:10:02;;;;;;;;;48.00;38.50;;;;;;;;5056547;28;45532;-71
2022/05/04 06:12:27;;;;;;;;;47.25;38.00;;;;;;;;5054869;28;45592;-70
2022/05/04 06:14:53;;;;;;;;;46.75;38.75;;;;;;;;5053537;28;45631;-71
2022/05/04 06:17:18;;;;;;;;;46.25;39.00;;;;;;;;5024990;27;45867;-71
2022/05/04 06:19:44;;;;;;;;;47.75;39.75;;;;;;;;5056090;28;45418;-71
2022/05/04 06:22:09;;;;;;;;;47.75;39.50;;;;;;;;5056051;28;45544;-71
2022/05/04 06:24:34;;;;;;;;;51.00;40.00;;;;;;;;5056598;28;45436;-72
2022/05/04 06:27:00;;;;;;;;;46.00;38.50;;;;;;;;5056471;28;45503;-71
2022/05/04 06:34:06;;;;;;;;;48.25;37.00;;;;;;;;5056791;28;45440;-73
2022/05/04 06:34:55;;;;;;;;;44.25;35.75;;;;;;;;5056465;28;45506;-73
2022/05/04 06:37:21;;;;;;;;;44.50;35.75;;;;;;;;5056042;28;46138;-71
2022/05/04 06:39:46;;;;;;;;;46.75;38.50;;;;;;;;5055790;28;45399;-73
2022/05/04 06:42:12;;;;;;;;;45.50;37.00;;;;;;;;5056136;28;45314;-73
2022/05/04 06:44:37;;;;;;;;;46.75;36.25;;;;;;;;5056257;28;45576;-73
2022/05/04 06:47:03;;;;;;;;;41.75;36.00;;;;;;;;5056222;28;45319;-73
2022/05/04 06:49:28;;;;;;;;;45.75;37.00;;;;;;;;5055799;28;45438;-72
2022/05/04 06:51:54;;;;;;;;;42.25;35.25;;;;;;;;5055872;28;45552;-72
2022/05/04 06:54:19;;;;;;;;;43.50;36.00;;;;;;;;5056122;28;45832;-72
2022/05/04 06:56:44;;;;;;;;;46.25;37.00;;;;;;;;5055321;28;46094;-71
2022/05/04 06:59:10;;;;;;;;;44.50;36.75;;;;;;;;5056093;28;45378;-73
2022/05/04 07:01:35;;;;;;;;;46.75;38.75;;;;;;;;5055877;28;45394;-71
2022/05/04 07:04:00;;;;;;;;;52.75;42.50;;;;;;;;5055209;28;45591;-71
2022/05/04 07:06:26;;;;;;;;;46.25;38.25;;;;;;;;5055001;28;45591;-71
2022/05/04 07:08:52;;;;;;;;;46.25;39.00;;;;;;;;5054730;28;45603;-71
2022/05/04 07:11:17;;;;;;;;;46.50;38.00;;;;;;;;5056309;28;45644;-72
2022/05/04 07:13:43;;;;;;;;;45.00;36.75;;;;;;;;5058013;28;45532;-71
2022/05/04 07:16:08;;;;;;;;;46.00;39.00;;;;;;;;5058512;28;46246;-71
2022/05/04 07:18:34;;;;;;;;;57.50;46.75;;;;;;;;5058464;28;45390;-71
2022/05/04 07:20:59;;;;;;;;;50.50;40.75;;;;;;;;5059650;28;45477;-71
2022/05/04 07:23:24;;;;;;;;;45.25;37.75;;;;;;;;5059321;28;45468;-71
2022/05/04 07:25:50;;;;;;;;;42.75;37.50;;;;;;;;5059084;28;45531;-72
2022/05/04 07:28:15;;;;;;;;;40.00;35.00;;;;;;;;5059108;28;45393;-72
2022/05/04 07:30:40;;;;;;;;;40.50;36.00;;;;;;;;5059363;28;45435;-72
2022/05/04 07:33:06;;;;;;;;;45.00;37.50;;;;;;;;5058353;28;45467;-71
2022/05/04 07:35:31;;;;;;;;;39.75;35.75;;;;;;;;5058911;28;46403;-72
2022/05/04 07:37:57;;;;;;;;;42.25;35.75;;;;;;;;5059209;28;45338;-71
2022/05/04 07:43:06;;;;;;;;;39.25;34.00;;;;;;;;5038848;28;45468;-71
2022/05/04 07:45:32;;;;;;;;;46.50;37.50;;;;;;;;5039102;28;45347;-70
2022/05/04 07:47:57;;;;;;;;;45.75;37.75;;;;;;;;5039847;28;45323;-71
2022/05/04 07:50:23;;;;;;;;;43.75;36.75;;;;;;;;5039387;28;45351;-71
2022/05/04 07:52:48;;;;;;;;;41.00;36.50;;;;;;;;5039803;28;45221;-72
2022/05/04 07:55:13;;;;;;;;;44.00;36.00;;;;;;;;5039201;28;46148;-71
2022/05/04 07:57:39;;;;;;;;;45.25;36.50;;;;;;;;5039346;28;45261;-72
2022/05/04 08:05:34;;;;;;;;;43.00;36.00;;;;;;;;5038952;28;45726;-72
2022/05/04 08:07:59;;;;;;;;;45.25;36.00;;;;;;;;5039237;28;45513;-72
2022/05/04 08:10:25;;;;;;;;;42.75;35.00;;;;;;;;5039251;28;45261;-72
2022/05/04 08:12:51;;;;;;;;;40.75;36.00;;;;;;;;5039526;28;45367;-71
2022/05/04 08:15:17;;;;;;;;;46.50;37.50;;;;;;;;5038743;28;46245;-71
2022/05/04 08:17:42;;;;;;;;;48.00;39.50;;;;;;;;5038852;28;45373;-71
2022/05/04 08:20:08;;;;;;;;;46.50;38.25;;;;;;;;5039078;28;45401;-71
2022/05/04 08:22:33;;;;;;;;;51.75;40.00;;;;;;;;5038796;28;45489;-70
2022/05/04 08:24:59;;;;;;;;;52.25;43.25;;;;;;;;5037659;28;45496;-70
2022/05/04 08:27:24;;;;;;;;;49.00;40.25;;;;;;;;5038871;28;45319;-71
2022/05/04 08:29:50;;;;;;;;;46.25;37.75;;;;;;;;5039064;28;45501;-70
2022/05/04 08:32:15;;;;;;;;;46.75;37.75;;;;;;;;5039128;28;45484;-72
2022/05/04 08:34:41;;;;;;;;;59.50;47.25;;;;;;;;5038555;28;46015;-72
2022/05/04 08:37:06;;;;;;;;;48.75;39.00;;;;;;;;5038850;28;45492;-72
2022/05/04 08:39:31;;;;;;;;;54.50;43.50;;;;;;;;5039026;28;45992;-72
2022/05/04 08:41:58;;;;;;;;;70.75;56.50;;;;;;;;5038859;28;45482;-72
2022/05/04 08:44:23;;;;;;;;;75.00;65.75;;;;;;;;5038783;28;46077;-71
2022/05/04 08:46:50;;;;;;;;;46.00;37.75;;;;;;;;5038410;28;45450;-72
2022/05/04 08:49:19;;;;;;;;;46.25;39.00;;;;;;;;5038707;28;45253;-71
2022/05/04 08:51:44;;;;;;;;;54.25;42.00;;;;;;;;5038498;28;45473;-72
2022/05/04 08:54:09;;;;;;;;;61.50;47.00;;;;;;;;5038290;28;46047;-71
2022/05/04 08:56:35;;;;;;;;;58.75;45.25;;;;;;;;5038450;28;45208;-71
2022/05/04 08:59:02;;;;;;;;;52.50;41.75;;;;;;;;5038463;28;45556;-73
2022/05/04 09:01:27;;;;;;;;;60.25;48.00;;;;;;;;5038426;28;45301;-71
2022/05/04 09:03:53;;;;;;;;;61.00;47.00;;;;;;;;5038199;28;45324;-71
2022/05/04 09:06:25;;;;;;;;;78.25;69.75;;;;;;;;5038148;28;45464;-72
2022/05/04 09:08:53;;;;;;;;;71.50;58.00;;;;;;;;5038264;28;45450;-73
2022/05/04 09:11:23;;;;;;;;;67.00;53.25;;;;;;;;5038039;28;45426;-71
2022/05/04 09:13:48;;;;;;;;;43.50;36.00;;;;;;;;5038036;28;46096;-71
2022/05/04 09:16:31;;;;;;;;;44.50;36.00;;;;;;;;5037751;28;45838;-72
2022/05/04 09:18:59;;;;;;;;;51.75;43.25;;;;;;;;5037967;28;45376;-72
2022/05/04 09:21:26;;;;;;;;;52.25;41.00;;;;;;;;5038034;28;45479;-71
2022/05/04 09:23:52;;;;;;;;;46.00;36.25;;;;;;;;5037638;28;45492;-71
2022/05/04 09:26:19;;;;;;;;;49.75;39.50;;;;;;;;5037543;28;45295;-70
2022/05/04 09:28:48;;;;;;;;;50.50;40.00;;;;;;;;5037583;28;45507;-71
2022/05/04 09:31:14;;;;;;;;;54.50;43.00;;;;;;;;5037933;28;45416;-71
2022/05/04 09:33:40;;;;;;;;;45.00;36.25;;;;;;;;5037223;28;46415;-71
2022/05/04 09:36:06;;;;;;;;;42.00;35.00;;;;;;;;5036444;28;45256;-72
2022/05/04 09:46:50;;;;;;;;;49.00;39.50;;;;;;;;5037398;28;45559;-72
2022/05/04 09:49:19;;;;;;;;;65.75;52.75;;;;;;;;5040515;28;45239;-71
2022/05/04 09:51:54;;;;;;;;;57.00;46.00;;;;;;;;5038455;28;45305;-71
2022/05/04 09:54:29;;;;;;;;;48.25;40.25;;;;;;;;5038090;28;45498;-73
2022/05/04 09:56:56;;;;;;;;;48.00;38.75;;;;;;;;5036349;28;45302;-72
2022/05/04 09:59:25;;;;;;;;;46.00;39.00;;;;;;;;5037433;28;45406;-72
2022/05/04 10:01:51;;;;;;;;;47.75;37.25;;;;;;;;5037767;28;45449;-72
2022/05/04 10:04:17;;;;;;;;;52.00;42.00;;;;;;;;5037204;28;45558;-71
2022/05/04 10:06:43;;;;;;;;;57.00;45.50;;;;;;;;5037786;28;45590;-72
2022/05/04 10:09:09;;;;;;;;;48.00;38.00;;;;;;;;5037704;28;45248;-71
2022/05/04 10:11:35;;;;;;;;;55.25;44.25;;;;;;;;5037312;28;45406;-72
2022/05/04 10:14:05;;;;;;;;;53.00;41.25;;;;;;;;5052795;28;46057;-71
2022/05/04 10:16:31;;;;;;;;;46.75;36.75;;;;;;;;5073499;28;45242;-72
2022/05/04 10:19:00;;;;;;;;;44.00;37.25;;;;;;;;5058501;28;45486;-72
2022/05/04 10:21:26;;;;;;;;;40.75;35.00;;;;;;;;5057748;28;45298;-72
2022/05/04 10:23:55;;;;;;;;;44.25;37.00;;;;;;;;5058221;28;46524;-72
2022/05/04 10:26:39;;;;;;;;;44.50;35.75;;;;;;;;5057243;28;45274;-71
2022/05/04 10:32:31;;;;;;;;;45.50;38.25;;;;;;;;5034584;28;45677;-70
2022/05/04 10:35:12;;;;;;;;;44.00;36.75;;;;;;;;5055551;28;45519;-71
2022/05/04 10:37:54;;;;;;;;;46.00;37.00;;;;;;;;5057535;28;45226;-71
2022/05/04 10:40:23;;;;;;;;;39.75;34.25;;;;;;;;5057905;28;45357;-72
2022/05/04 10:42:58;;;;;;;;;43.50;35.00;;;;;;;;5057112;28;45473;-72
2022/05/04 10:45:29;;;;;;;;;39.75;34.75;;;;;;;;5056616;28;46233;-71
2022/05/04 10:48:12;;;;;;;;;40.50;34.50;;;;;;;;5057437;28;45292;-71
2022/05/04 10:50:56;;;;;;;;;40.00;33.75;;;;;;;;5057536;28;45536;-70
2022/05/04 10:53:33;;;;;;;;;37.25;32.25;;;;;;;;5058276;28;45226;-72
2022/05/04 10:56:12;;;;;;;;;36.50;32.25;;;;;;;;5056613;28;46057;-72
2022/05/04 10:58:41;;;;;;;;;39.75;34.00;;;;;;;;5056663;28;45384;-70
2022/05/04 11:01:10;;;;;;;;;40.00;32.25;;;;;;;;5056813;28;45414;-70
2022/05/04 11:03:36;;;;;;;;;45.50;36.00;;;;;;;;5056703;28;45378;-72
2022/05/04 11:06:03;;;;;;;;;41.00;34.50;;;;;;;;5056568;28;46092;-71
2022/05/04 11:08:34;;;;;;;;;38.75;33.75;;;;;;;;5057059;28;45415;-71
2022/05/04 11:11:00;;;;;;;;;38.75;33.50;;;;;;;;5056439;28;45412;-72
2022/05/04 11:13:25;;;;;;;;;38.00;33.00;;;;;;;;5057197;28;45441;-72
2022/05/04 11:15:52;;;;;;;;;34.75;31.25;;;;;;;;5056251;28;46203;-71
2022/05/04 11:18:19;;;;;;;;;35.75;33.50;;;;;;;;5057862;28;45397;-70
2022/05/04 11:20:49;;;;;;;;;37.75;34.00;;;;;;;;5058106;28;45286;-71
2022/05/04 11:23:22;;;;;;;;;33.00;30.75;;;;;;;;5057729;27;45317;-72
2022/05/04 11:25:49;;;;;;;;;35.75;33.25;;;;;;;;5058795;28;46169;-72
2022/05/04 11:28:18;;;;;;;;;39.00;34.00;;;;;;;;5056523;28;45415;-72
2022/05/04 11:30:43;;;;;;;;;37.00;33.75;;;;;;;;5056551;28;45272;-72
2022/05/04 11:33:12;;;;;;;;;42.25;34.50;;;;;;;;5057618;28;45400;-72
2022/05/04 11:35:37;;;;;;;;;38.00;35.25;;;;;;;;5055103;28;46870;-72
2022/05/04 11:38:03;;;;;;;;;35.50;32.25;;;;;;;;5056675;28;45340;-71
2022/05/04 11:40:28;;;;;;;;;38.00;33.75;;;;;;;;5057980;28;45332;-71
2022/05/04 11:42:54;;;;;;;;;41.00;36.00;;;;;;;;5057176;28;45323;-72
2022/05/04 11:45:20;;;;;;;;;44.50;37.00;;;;;;;;5057611;28;45447;-71
2022/05/04 11:47:45;;;;;;;;;38.50;33.50;;;;;;;;5057474;28;45318;-71
2022/05/04 11:50:11;;;;;;;;;37.00;33.25;;;;;;;;5059938;28;45695;-72
2022/05/04 11:52:37;;;;;;;;;37.00;34.50;;;;;;;;5058732;28;45327;-71
2022/05/04 11:55:04;;;;;;;;;34.25;31.75;;;;;;;;5056865;28;46132;-72
2022/05/04 11:57:31;;;;;;;;;38.50;35.00;;;;;;;;5056241;28;45381;-72
2022/05/04 11:59:56;;;;;;;;;36.25;33.00;;;;;;;;5059293;28;45251;-72
2022/05/04 12:02:22;;;;;;;;;33.25;31.75;;;;;;;;5060470;28;45488;-72
2022/05/04 12:04:48;;;;;;;;;34.75;32.75;;;;;;;;5059564;28;45378;-72
2022/05/04 12:07:13;;;;;;;;;33.00;30.00;;;;;;;;5060299;28;45397;-72
2022/05/04 12:09:39;;;;;;;;;34.50;33.25;;;;;;;;5059747;28;45464;-71
2022/05/04 12:12:05;;;;;;;;;31.25;30.00;;;;;;;;5059781;28;45294;-72
2022/05/04 12:14:30;;;;;;;;;35.25;31.25;;;;;;;;5059121;28;45468;-71
2022/05/04 12:16:56;;;;;;;;;31.50;27.75;;;;;;;;5059025;28;45294;-72
2022/05/04 12:19:22;;;;;;;;;33.50;32.75;;;;;;;;5059167;28;45291;-72
2022/05/04 12:21:49;;;;;;;;;33.50;31.00;;;;;;;;5059508;28;45501;-71
2022/05/04 12:24:14;;;;;;;;;34.50;29.75;;;;;;;;5059296;28;46283;-71
2022/05/04 12:26:40;;;;;;;;;39.50;33.50;;;;;;;;5058955;28;45432;-74
2022/05/04 12:34:35;;;;;;;;;31.50;28.00;;;;;;;;5058730;28;45377;-71
2022/05/04 12:37:01;;;;;;;;;33.00;30.75;;;;;;;;5058681;28;45329;-71
2022/05/04 12:39:49;;;;;;;;;32.00;30.50;;;;;;;;5059286;28;45298;-71
2022/05/04 12:42:15;;;;;;;;;34.00;31.00;;;;;;;;5061400;28;45305;-70
2022/05/04 12:44:47;;;;;;;;;32.50;29.00;;;;;;;;5059405;28;45621;-73
2022/05/04 12:47:13;;;;;;;;;43.25;37.00;;;;;;;;5058684;28;45326;-71
2022/05/04 12:49:40;;;;;;;;;29.00;24.50;;;;;;;;5058671;28;45396;-72
2022/05/04 12:52:05;;;;;;;;;31.75;29.00;;;;;;;;5059292;28;45318;-72
2022/05/04 12:54:31;;;;;;;;;33.25;27.25;;;;;;;;5059075;28;45488;-72
2022/05/04 12:56:56;;;;;;;;;32.50;29.25;;;;;;;;5058693;28;45389;-71
2022/05/04 12:59:21;;;;;;;;;30.50;28.75;;;;;;;;5058590;28;45499;-71
2022/05/04 13:01:47;;;;;;;;;35.50;31.25;;;;;;;;5058980;28;45605;-73
2022/05/04 13:04:15;;;;;;;;;34.50;30.00;;;;;;;;5058241;28;45996;-73
2022/05/04 13:06:41;;;;;;;;;30.75;27.25;;;;;;;;5058271;28;45291;-71
2022/05/04 13:09:06;;;;;;;;;29.33;27.33;;;;;;;;5058415;28;45307;-72
2022/05/04 13:11:33;;;;;;;;;29.00;27.75;;;;;;;;5058441;28;45409;-72
2022/05/04 13:13:58;;;;;;;;;31.25;28.00;;;;;;;;5058105;28;46248;-72
2022/05/04 13:16:24;;;;;;;;;27.33;26.33;;;;;;;;5057955;28;45427;-72
2022/05/04 13:18:49;;;;;;;;;30.33;27.00;;;;;;;;5058421;28;45231;-72
2022/05/04 13:21:15;;;;;;;;;27.33;26.00;;;;;;;;5058338;28;45440;-74
2022/05/04 13:23:42;;;;;;;;;33.25;26.50;;;;;;;;5057695;28;46513;-72
2022/05/04 13:26:08;;;;;;;;;30.75;27.00;;;;;;;;5057445;28;45532;-72
2022/05/04 13:28:33;;;;;;;;;30.00;28.00;;;;;;;;5057931;28;46098;-72
2022/05/04 13:31:00;;;;;;;;;34.25;30.75;;;;;;;;5058032;28;45238;-71
2022/05/04 13:33:25;;;;;;;;;27.25;25.50;;;;;;;;5056303;28;45537;-71
2022/05/04 13:35:51;;;;;;;;;33.50;30.75;;;;;;;;5057826;28;45379;-73
2022/05/04 13:38:16;;;;;;;;;35.25;29.50;;;;;;;;5057850;28;45562;-72
2022/05/04 13:40:42;;;;;;;;;21.33;21.00;;;;;;;;5058081;28;45443;-72
2022/05/04 13:43:09;;;;;;;;;33.50;28.75;;;;;;;;5057565;28;46198;-73
2022/05/04 13:45:34;;;;;;;;;26.50;25.00;;;;;;;;5057313;28;45493;-72
2022/05/04 13:47:59;;;;;;;;;28.25;26.25;;;;;;;;5073315;28;45453;-72
2022/05/04 13:53:15;;;;;;;;;30.00;27.00;;;;;;;;5057339;28;45934;-72
2022/05/04 13:55:41;;;;;;;;;33.25;28.00;;;;;;;;5057043;28;45161;-72
2022/05/04 13:58:06;;;;;;;;;30.00;24.75;;;;;;;;5057815;28;45547;-72
2022/05/04 14:00:32;;;;;;;;;27.75;26.50;;;;;;;;5057440;28;45379;-71
2022/05/04 14:02:57;;;;;;;;;31.00;29.50;;;;;;;;5057242;28;46215;-71
2022/05/04 14:05:22;;;;;;;;;31.75;29.50;;;;;;;;5057576;28;45358;-72
2022/05/04 14:07:48;;;;;;;;;34.75;28.25;;;;;;;;5057441;28;45472;-72
2022/05/04 14:10:13;;;;;;;;;32.75;31.25;;;;;;;;5057561;28;45538;-71
2022/05/04 14:12:39;;;;;;;;;30.75;28.50;;;;;;;;5057295;28;46082;-72
2022/05/04 14:15:06;;;;;;;;;30.75;28.25;;;;;;;;5057510;28;45895;-72
2022/05/04 14:17:31;;;;;;;;;31.00;29.25;;;;;;;;5057139;28;45400;-72
2022/05/04 14:19:57;;;;;;;;;30.50;26.00;;;;;;;;5057120;28;45380;-72
2022/05/04 14:22:22;;;;;;;;;26.75;25.00;;;;;;;;5056672;28;45908;-71
2022/05/04 14:24:47;;;;;;;;;30.33;28.00;;;;;;;;5056938;28;45418;-72
2022/05/04 14:27:13;;;;;;;;;33.25;30.75;;;;;;;;5057069;28;45488;-73
2022/05/04 14:29:38;;;;;;;;;28.50;27.25;;;;;;;;5055529;28;45417;-72
2022/05/04 14:32:04;;;;;;;;;33.00;31.25;;;;;;;;5056581;28;45931;-72
2022/05/04 14:34:29;;;;;;;;;34.25;30.25;;;;;;;;5056766;28;45457;-71
2022/05/04 14:36:55;;;;;;;;;30.25;28.25;;;;;;;;5057110;28;45575;-72
2022/05/04 14:39:21;;;;;;;;;29.00;28.00;;;;;;;;5073017;27;45520;-72
2022/05/04 14:41:46;;;;;;;;;27.67;27.67;;;;;;;;5056663;28;45967;-72
2022/05/04 14:44:12;;;;;;;;;31.75;29.25;;;;;;;;5056711;28;45468;-73
2022/05/04 14:46:37;;;;;;;;;32.25;29.00;;;;;;;;5056942;28;45223;-73
2022/05/04 14:49:03;;;;;;;;;33.00;30.33;;;;;;;;5056960;28;45409;-72
2022/05/04 14:51:28;;;;;;;;;31.00;27.50;;;;;;;;5056623;28;45492;-72
2022/05/04 14:53:54;;;;;;;;;28.00;25.25;;;;;;;;5072444;28;45432;-72